Terminal Aerodrome Forecast
Issued by NWS Greer, SC

Home | Current Version | Previous Version | Text Only | Print | Product List | Glossary On
Versions: 1 2 3 4 5 6 7 8 9 10 11 12 13 14 15 16 17 18 19 20 21 22 23 24 25 26 27 28 29 30 31 32
000
FTUS42 KGSP 260723 AAA
TAFAVL
TAF AMD
KAVL 260723Z 2607/2706 16008KT P6SM VCSH BKN025
     FM261100 16005KT 4SM BR VCSH OVC015
      TEMPO 2612/2614 2SM -SHRA BR OVC010
     FM261900 17008KT P6SM -SHRA OVC050 PROB30 2620/2622 4SM TSRA
      OVC025CB
     FM270300 17004KT P6SM OVC045 PROB30 2703/2705 4SM -SHRA OVC025=

USA.gov is the U.S. government's official web portal to all federal, state and local government web resources and services.